Time;durP1;ratioP1;P1;durP2;ratioP2;P2;SDS_P1;SDS_P2;PMS_P1;PMS_P2;Temp;Humidity;BMP_temperature;BMP_pressure;BME280_temperature;BME280_humidity;BME280_pressure;Samples;Min_cycle;Max_cycle;Signal;HPM_P1;HPM_P2
2021/12/21 00:00:32;;;;;;;14.63;5.95;;;-0.30;99.90;;;;;;5014501;28;20101;-69
2021/12/21 00:02:58;;;;;;;;;;;-0.30;99.90;;;;;;5014446;28;20092;-70
2021/12/21 00:05:28;;;;;;;13.85;6.10;;;-0.30;99.90;;;;;;5013802;28;20366;-68
2021/12/21 00:07:56;;;;;;;16.42;6.20;;;-0.40;99.90;;;;;;5014070;28;20029;-70
2021/12/21 00:10:26;;;;;;;17.42;7.15;;;-0.40;99.90;;;;;;5014833;28;20032;-69
2021/12/21 00:15:26;;;;;;;15.73;6.72;;;-0.40;99.90;;;;;;5014563;28;20470;-69
2021/12/21 00:18:01;;;;;;;19.23;6.50;;;-0.40;99.90;;;;;;5012323;28;20375;-70
2021/12/21 00:20:34;;;;;;;17.15;6.07;;;-0.40;99.90;;;;;;5013733;28;20018;-68
2021/12/21 00:25:34;;;;;;;17.10;6.53;;;-0.40;99.90;;;;;;5013840;28;20025;-70
2021/12/21 00:28:01;;;;;;;13.67;6.23;;;-0.40;99.90;;;;;;5013527;28;20022;-69
2021/12/21 00:30:26;;;;;;;19.42;6.40;;;-0.40;99.90;;;;;;5013079;28;20057;-70
2021/12/21 00:32:52;;;;;;;9.70;5.80;;;-0.50;99.90;;;;;;5013359;28;20032;-70
2021/12/21 00:35:18;;;;;;;14.53;5.83;;;-0.50;99.90;;;;;;5013459;28;20112;-69
2021/12/21 00:37:46;;;;;;;17.33;6.10;;;-0.50;99.90;;;;;;5013037;28;20101;-70
2021/12/21 00:40:12;;;;;;;14.25;5.53;;;-0.60;99.90;;;;;;5013201;28;20022;-69
2021/12/21 00:42:37;;;;;;;13.10;5.83;;;-0.60;99.90;;;;;;5013068;28;20084;-69
2021/12/21 00:45:04;;;;;;;15.67;6.00;;;-0.60;99.90;;;;;;5012810;28;20104;-69
2021/12/21 00:47:33;;;;;;;18.17;6.53;;;-0.60;99.90;;;;;;5013115;28;20390;-69
2021/12/21 00:50:01;;;;;;;11.23;5.88;;;-0.60;99.90;;;;;;5011513;28;20448;-68
2021/12/21 00:52:27;;;;;;;16.83;6.85;;;-0.60;99.90;;;;;;5011728;28;20054;-68
2021/12/21 00:54:52;;;;;;;15.35;5.95;;;-0.60;99.90;;;;;;5013622;28;20042;-69
2021/12/21 00:57:18;;;;;;;16.27;6.05;;;-0.60;99.90;;;;;;5017214;28;20458;-69
2021/12/21 00:59:44;;;;;;;15.20;5.90;;;-0.60;99.90;;;;;;5016806;28;20137;-69
2021/12/21 01:02:11;;;;;;;17.13;5.55;;;-0.70;99.90;;;;;;5016705;28;20029;-69
2021/12/21 01:04:42;;;;;;;15.23;6.28;;;-0.70;99.90;;;;;;5016684;28;20037;-69
2021/12/21 01:23:30;;;;;;;15.25;6.35;;;-0.90;99.90;;;;;;5016882;28;20026;-70
2021/12/21 01:26:01;;;;;;;15.57;6.05;;;-0.80;99.90;;;;;;5016123;28;20059;-69
2021/12/21 01:31:14;;;;;;;13.82;6.10;;;-0.90;99.90;;;;;;5016257;28;20171;-69
2021/12/21 01:33:54;;;;;;;15.05;5.90;;;-0.90;99.90;;;;;;5016614;28;20029;-69
2021/12/21 01:36:29;;;;;;;16.02;6.78;;;-0.90;99.90;;;;;;5016470;28;20056;-68
2021/12/21 01:39:03;;;;;;;16.83;6.13;;;-0.90;99.90;;;;;;5018094;28;20109;-69
2021/12/21 01:42:18;;;;;;;17.83;6.10;;;-0.90;99.90;;;;;;5016850;28;20021;-68
2021/12/21 01:49:50;;;;;;;17.52;7.18;;;-1.00;99.90;;;;;;5016393;28;20092;-69
2021/12/21 01:52:22;;;;;;;17.00;6.50;;;-1.00;99.90;;;;;;5015661;28;20483;-70
2021/12/21 01:54:49;;;;;;;14.07;6.07;;;-1.10;99.90;;;;;;5014337;28;20042;-70
2021/12/21 01:57:14;;;;;;;;;;;-1.10;99.90;;;;;;5015954;28;20108;-70
2021/12/21 01:59:42;;;;;;;20.10;6.57;;;-1.10;99.90;;;;;;5015461;28;19999;-70
2021/12/21 02:02:09;;;;;;;16.35;6.05;;;-1.10;99.90;;;;;;5015514;28;20387;-69
2021/12/21 02:04:40;;;;;;;15.30;6.50;;;-1.20;99.90;;;;;;5016161;28;20133;-69
2021/12/21 02:07:07;;;;;;;16.27;6.25;;;-1.30;99.90;;;;;;5013574;28;20049;-69
2021/12/21 02:09:38;;;;;;;;;;;-1.30;99.90;;;;;;5016020;28;20036;-69
2021/12/21 02:12:06;;;;;;;19.75;6.28;;;-1.30;99.90;;;;;;5015393;28;19912;-69
2021/12/21 02:14:32;;;;;;;15.52;6.88;;;-1.30;99.90;;;;;;5015114;28;20037;-69
2021/12/21 02:20:08;;;;;;;13.30;6.10;;;-1.20;99.90;;;;;;5015534;28;20034;-68
2021/12/21 02:22:37;;;;;;;13.52;6.03;;;-1.30;99.90;;;;;;5010866;28;20434;-68
2021/12/21 02:30:31;;;;;;;16.40;5.88;;;-1.30;99.90;;;;;;5015125;28;20430;-69
2021/12/21 02:32:57;;;;;;;13.67;6.17;;;-1.30;99.90;;;;;;5014938;28;20022;-69
2021/12/21 02:35:22;;;;;;;20.37;6.17;;;-1.20;99.90;;;;;;5014886;28;20100;-69
2021/12/21 02:37:48;;;;;;;23.43;6.33;;;-1.20;99.90;;;;;;5015036;28;20032;-69
2021/12/21 02:40:14;;;;;;;12.80;5.77;;;-1.20;99.90;;;;;;5014910;28;20069;-69
2021/12/21 02:42:39;;;;;;;19.70;5.50;;;-1.20;99.90;;;;;;5014963;28;20026;-69
2021/12/21 02:45:06;;;;;;;15.27;6.43;;;-1.20;99.90;;;;;;5013396;28;20063;-69
2021/12/21 02:47:31;;;;;;;17.27;5.25;;;-1.20;99.90;;;;;;5013359;28;20056;-69
2021/12/21 02:49:58;;;;;;;19.53;6.10;;;-1.30;99.90;;;;;;5014967;28;20137;-69
2021/12/21 02:52:24;;;;;;;14.65;5.70;;;-1.20;99.90;;;;;;5014756;28;20479;-69
2021/12/21 02:54:49;;;;;;;16.83;5.93;;;-1.20;99.90;;;;;;5014708;28;20232;-70
2021/12/21 02:57:15;;;;;;;14.80;5.00;;;-1.20;99.90;;;;;;5013335;28;20029;-69
2021/12/21 02:59:41;;;;;;;18.30;6.43;;;-1.20;99.90;;;;;;5014481;28;20033;-69
2021/12/21 03:02:06;;;;;;;16.00;7.00;;;-1.20;99.90;;;;;;5014941;28;20026;-69
2021/12/21 03:04:32;;;;;;;18.00;6.63;;;-1.20;99.90;;;;;;5015718;28;20391;-69
2021/12/21 03:09:41;;;;;;;12.45;5.55;;;-1.30;99.90;;;;;;5014855;28;20176;-69
2021/12/21 03:14:46;;;;;;;16.90;5.70;;;-1.40;99.90;;;;;;5015077;28;20033;-69
2021/12/21 03:17:12;;;;;;;16.57;5.73;;;-1.40;99.90;;;;;;5014629;28;20498;-68
2021/12/21 03:19:38;;;;;;;18.50;5.75;;;-1.40;99.90;;;;;;5012264;28;20081;-69
2021/12/21 03:22:05;;;;;;;19.92;6.40;;;-1.40;99.90;;;;;;5014787;28;20030;-69
2021/12/21 03:24:31;;;;;;;16.45;7.28;;;-1.50;99.90;;;;;;5012904;28;20113;-68
2021/12/21 03:26:57;;;;;;;16.58;6.75;;;-1.50;99.90;;;;;;5014075;28;20064;-69
2021/12/21 03:29:24;;;;;;;13.77;6.37;;;-1.50;99.90;;;;;;5014441;28;20054;-69
2021/12/21 03:31:49;;;;;;;;;;;-1.50;99.90;;;;;;5013539;28;20028;-69
2021/12/21 03:34:15;;;;;;;22.90;6.60;;;-1.50;99.90;;;;;;5014691;28;19967;-69
2021/12/21 03:36:41;;;;;;;12.52;6.95;;;-1.50;99.90;;;;;;5014122;28;20037;-69
2021/12/21 03:39:10;;;;;;;11.38;5.85;;;-1.50;99.90;;;;;;5013932;28;20037;-69
2021/12/21 03:41:44;;;;;;;13.77;5.90;;;-1.50;99.90;;;;;;5012608;28;20026;-70
2021/12/21 03:44:10;;;;;;;16.05;6.32;;;-1.60;99.90;;;;;;5014242;28;20026;-65
2021/12/21 03:46:44;;;;;;;19.02;6.45;;;-1.60;99.90;;;;;;5013782;28;20033;-66
2021/12/21 03:49:37;;;;;;;16.55;6.25;;;-1.60;99.90;;;;;;5013869;28;20391;-65
2021/12/21 03:51:55;;;;;;;17.80;6.53;;;-1.60;99.90;;;;;;5013502;28;20479;-65
2021/12/21 03:54:21;;;;;;;15.90;6.40;;;-1.60;99.90;;;;;;5013612;28;20088;-66
2021/12/21 03:56:49;;;;;;;15.70;6.55;;;-1.60;99.90;;;;;;5013667;28;20026;-66
2021/12/21 03:59:15;;;;;;;20.88;5.82;;;-1.60;99.90;;;;;;5013475;28;20145;-65
2021/12/21 04:01:41;;;;;;;18.02;6.32;;;-1.60;99.90;;;;;;5013621;28;20049;-65
2021/12/21 04:04:08;;;;;;;15.73;6.93;;;-1.60;99.90;;;;;;5013558;28;20450;-65
2021/12/21 04:06:34;;;;;;;;;;;-1.60;99.90;;;;;;5013878;28;20046;-65
2021/12/21 04:09:00;;;;;;;13.48;6.30;;;-1.70;99.90;;;;;;5015145;28;19909;-65
2021/12/21 04:11:25;;;;;;;15.13;5.80;;;-1.70;99.90;;;;;;5013493;28;20026;-65
2021/12/21 04:13:51;;;;;;;14.10;5.70;;;-1.60;99.90;;;;;;5013324;28;20030;-65
2021/12/21 04:16:17;;;;;;;16.70;6.20;;;-1.70;99.90;;;;;;5013579;28;20029;-65
2021/12/21 04:18:42;;;;;;;13.30;5.63;;;-1.70;99.90;;;;;;5013376;28;20026;-65
2021/12/21 04:21:12;;;;;;;13.83;5.77;;;-1.70;99.90;;;;;;5013400;28;20025;-66
2021/12/21 04:23:38;;;;;;;14.43;6.13;;;-1.70;99.90;;;;;;5013145;28;20029;-65
2021/12/21 04:26:04;;;;;;;11.35;5.40;;;-1.70;99.90;;;;;;5013162;28;20018;-65
2021/12/21 04:28:29;;;;;;;18.03;6.57;;;-1.80;99.90;;;;;;5013413;28;20022;-65
2021/12/21 04:30:55;;;;;;;12.10;5.87;;;-1.80;99.90;;;;;;5011610;28;20026;-65
2021/12/21 04:33:21;;;;;;;12.30;6.03;;;-1.80;99.90;;;;;;5013086;28;20123;-65
2021/12/21 04:35:46;;;;;;;19.03;6.33;;;-1.70;99.90;;;;;;5013147;28;20033;-64
2021/12/21 04:38:24;;;;;;;17.77;6.87;;;-1.80;99.90;;;;;;5013404;28;20037;-67
2021/12/21 04:40:56;;;;;;;14.68;6.35;;;-1.80;99.90;;;;;;5013788;28;20101;-68
2021/12/21 04:43:22;;;;;;;15.98;6.10;;;-1.80;99.90;;;;;;5014874;28;20018;-67
2021/12/21 04:45:48;;;;;;;15.43;5.80;;;-1.80;99.90;;;;;;5019575;28;20063;-67
2021/12/21 04:48:13;;;;;;;18.42;6.72;;;-1.80;99.90;;;;;;5015442;28;20024;-65
2021/12/21 04:50:41;;;;;;;20.93;6.67;;;-1.80;99.90;;;;;;5013278;28;20041;-67
2021/12/21 04:53:06;;;;;;;15.07;6.22;;;-1.80;99.90;;;;;;5013228;28;20026;-66
2021/12/21 04:55:32;;;;;;;15.87;6.17;;;-1.90;99.90;;;;;;5012931;28;20100;-66
2021/12/21 04:57:58;;;;;;;19.33;6.77;;;-1.80;99.90;;;;;;5013147;28;20061;-66
2021/12/21 05:00:24;;;;;;;20.67;6.33;;;-1.80;99.90;;;;;;5013435;28;20045;-65
2021/12/21 05:02:49;;;;;;;14.77;6.80;;;-1.80;99.90;;;;;;5012199;28;20264;-69
2021/12/21 05:05:15;;;;;;;14.03;6.50;;;-1.80;99.90;;;;;;5012047;28;20253;-69
2021/12/21 05:07:44;;;;;;;14.40;6.63;;;-1.80;99.90;;;;;;5011850;28;20022;-67
2021/12/21 05:10:11;;;;;;;20.08;6.30;;;-1.80;99.90;;;;;;5012869;28;20022;-68
2021/12/21 05:12:36;;;;;;;14.77;6.82;;;-1.80;99.90;;;;;;5013036;28;20022;-65
2021/12/21 05:15:04;;;;;;;15.87;5.73;;;-1.90;99.90;;;;;;5012914;28;20026;-66
2021/12/21 05:17:30;;;;;;;16.75;6.32;;;-1.90;99.90;;;;;;5013449;28;20087;-67
2021/12/21 05:19:55;;;;;;;20.77;6.70;;;-1.90;99.90;;;;;;5012970;28;20463;-66
2021/12/21 05:22:21;;;;;;;20.17;7.20;;;-1.90;99.90;;;;;;5013372;28;20018;-66
2021/12/21 05:24:47;;;;;;;14.97;6.57;;;-1.90;99.90;;;;;;5013535;28;20041;-66
2021/12/21 05:27:13;;;;;;;12.50;6.18;;;-1.90;99.90;;;;;;5013311;28;20103;-66
2021/12/21 05:29:39;;;;;;;17.38;6.18;;;-1.90;99.90;;;;;;5013114;28;20188;-66
2021/12/21 05:32:06;;;;;;;11.13;5.63;;;-1.90;99.90;;;;;;5013533;28;20068;-64
2021/12/21 05:34:32;;;;;;;14.05;6.18;;;-1.90;99.90;;;;;;5013279;28;20030;-65
2021/12/21 05:36:58;;;;;;;15.73;7.40;;;-1.90;99.90;;;;;;5013302;28;20045;-64
2021/12/21 05:39:27;;;;;;;15.93;6.75;;;-1.90;99.90;;;;;;5012878;28;20030;-65
2021/12/21 05:41:55;;;;;;;13.20;6.22;;;-1.90;99.90;;;;;;5013167;28;20069;-65
2021/12/21 05:44:23;;;;;;;19.77;6.78;;;-1.90;99.90;;;;;;5016083;28;20021;-65
2021/12/21 05:46:50;;;;;;;18.27;6.15;;;-1.90;99.90;;;;;;5016452;28;20026;-65
2021/12/21 05:49:16;;;;;;;15.30;5.85;;;-1.90;99.90;;;;;;5016262;28;20030;-65
2021/12/21 05:51:42;;;;;;;14.98;6.10;;;-1.90;99.90;;;;;;5016358;28;20459;-67
2021/12/21 05:54:08;;;;;;;17.50;6.28;;;-1.90;99.90;;;;;;5015442;28;20040;-67
2021/12/21 05:56:34;;;;;;;15.57;6.83;;;-1.90;99.90;;;;;;5020267;28;20036;-67
2021/12/21 05:59:02;;;;;;;16.13;6.35;;;-1.80;99.90;;;;;;5019260;28;20076;-64
2021/12/21 06:01:32;;;;;;;17.13;7.45;;;-1.80;99.90;;;;;;5016134;28;20109;-65
2021/12/21 06:04:00;;;;;;;14.50;6.00;;;-1.80;99.90;;;;;;5015991;28;20026;-65
2021/12/21 06:06:26;;;;;;;15.02;6.10;;;-1.80;99.90;;;;;;5014530;28;20022;-64
2021/12/21 06:08:53;;;;;;;11.65;5.60;;;-1.80;99.90;;;;;;5015981;28;20390;-63
2021/12/21 06:11:21;;;;;;;14.00;6.18;;;-1.80;99.90;;;;;;5015850;28;20107;-66
2021/12/21 06:22:45;;;;;;;17.75;5.80;;;-1.70;99.90;;;;;;5016595;28;20455;-67
2021/12/21 06:27:14;;;;;;;14.18;6.38;;;-1.80;99.90;;;;;;5016430;28;20030;-64
2021/12/21 06:29:41;;;;;;;17.52;5.97;;;-1.80;99.90;;;;;;5017182;28;20060;-63
2021/12/21 06:32:07;;;;;;;16.02;6.40;;;-1.70;99.90;;;;;;5018548;28;20030;-64
2021/12/21 06:34:33;;;;;;;15.95;6.70;;;-1.70;99.90;;;;;;5016941;28;20104;-63
2021/12/21 06:36:59;;;;;;;19.30;6.10;;;-1.70;99.90;;;;;;5015504;28;20069;-64
2021/12/21 06:39:27;;;;;;;16.10;6.63;;;-1.70;99.90;;;;;;5014117;28;20022;-65
2021/12/21 06:41:53;;;;;;;21.10;7.82;;;-1.70;99.90;;;;;;5013265;28;20371;-66
2021/12/21 06:44:19;;;;;;;17.23;7.20;;;-1.70;99.90;;;;;;5011726;28;20037;-63
2021/12/21 06:51:55;;;;;;;11.25;5.78;;;-1.70;99.90;;;;;;5013186;28;20513;-64
2021/12/21 06:54:21;;;;;;;17.42;6.10;;;-1.70;99.90;;;;;;5011901;28;20120;-63
2021/12/21 06:56:47;;;;;;;14.57;5.80;;;-1.70;99.90;;;;;;5015157;28;20059;-63
2021/12/21 06:59:13;;;;;;;14.70;6.40;;;-1.70;99.90;;;;;;5015785;28;20113;-64
2021/12/21 07:01:39;;;;;;;16.77;6.68;;;-1.70;99.90;;;;;;5014983;28;20120;-64
2021/12/21 07:04:09;;;;;;;16.88;6.72;;;-1.70;99.90;;;;;;5015060;28;20072;-64
2021/12/21 07:06:40;;;;;;;21.10;5.95;;;-1.70;99.90;;;;;;5014744;28;20030;-65
2021/12/21 07:09:29;;;;;;;13.63;6.20;;;-1.70;99.90;;;;;;5013704;28;20387;-67
2021/12/21 07:12:13;;;;;;;15.65;6.10;;;-1.70;99.90;;;;;;5014669;28;20100;-65
2021/12/21 07:18:06;;;;;;;15.55;6.40;;;-1.70;99.90;;;;;;5016740;28;20032;-66
2021/12/21 07:20:21;;;;;;;23.67;7.40;;;-1.80;99.90;;;;;;5018732;28;20037;-67
2021/12/21 07:22:46;;;;;;;15.23;6.57;;;-1.80;99.90;;;;;;5014075;28;20026;-66
2021/12/21 07:25:12;;;;;;;12.77;6.53;;;-1.80;99.90;;;;;;5014548;28;20037;-68
2021/12/21 07:27:38;;;;;;;16.83;7.47;;;-1.80;99.90;;;;;;5013690;28;20394;-66
2021/12/21 07:30:05;;;;;;;20.10;6.60;;;-1.80;99.90;;;;;;5014631;28;20072;-66
2021/12/21 07:32:31;;;;;;;16.45;7.55;;;-1.90;99.90;;;;;;5012262;28;20060;-65
2021/12/21 07:34:57;;;;;;;15.80;6.93;;;-1.90;99.90;;;;;;5013730;28;20014;-61
2021/12/21 07:37:25;;;;;;;17.02;7.70;;;-1.90;99.90;;;;;;5013676;28;20404;-62
2021/12/21 07:39:51;;;;;;;13.88;6.20;;;-1.90;99.90;;;;;;5013487;28;20029;-62
2021/12/21 07:42:18;;;;;;;19.33;7.18;;;-1.90;99.90;;;;;;5013753;28;20155;-63
2021/12/21 07:44:44;;;;;;;17.33;6.75;;;-1.90;99.90;;;;;;5013754;28;20479;-62
2021/12/21 07:47:10;;;;;;;15.90;6.32;;;-2.00;99.90;;;;;;5013785;28;20030;-62
2021/12/21 07:49:35;;;;;;;22.00;7.55;;;-1.90;99.90;;;;;;5012739;28;20394;-62
2021/12/21 07:52:01;;;;;;;16.98;7.25;;;-1.90;99.90;;;;;;5012367;28;20113;-62
2021/12/21 07:54:27;;;;;;;19.85;6.95;;;-2.00;99.90;;;;;;5013522;28;20026;-62
2021/12/21 07:56:53;;;;;;;16.00;7.07;;;-2.00;99.90;;;;;;5013473;28;20049;-62
2021/12/21 07:59:18;;;;;;;17.57;7.13;;;-1.90;99.90;;;;;;5012057;28;20160;-62
2021/12/21 08:01:44;;;;;;;14.02;6.72;;;-1.90;99.90;;;;;;5013528;28;20527;-61
2021/12/21 08:04:11;;;;;;;15.77;7.13;;;-1.90;99.90;;;;;;5013631;28;20028;-62
2021/12/21 08:06:37;;;;;;;;;;;-1.80;99.90;;;;;;5013598;28;20036;-66
2021/12/21 08:09:04;;;;;;;16.55;7.97;;;-1.80;99.90;;;;;;5013209;28;20366;-61
2021/12/21 08:14:00;;;;;;;14.90;7.00;;;-1.70;99.90;;;;;;5013164;28;20034;-62
2021/12/21 08:16:26;;;;;;;18.63;7.20;;;-1.60;99.90;;;;;;5013736;28;20030;-59
2021/12/21 08:18:52;;;;;;;16.83;8.02;;;-1.60;99.90;;;;;;5013181;28;20041;-62
2021/12/21 08:21:19;;;;;;;14.90;7.38;;;-1.50;99.90;;;;;;5013480;28;20026;-62
2021/12/21 08:23:45;;;;;;;21.80;9.05;;;-1.50;99.90;;;;;;5012486;28;20034;-63
2021/12/21 08:26:12;;;;;;;15.82;7.93;;;-1.50;99.90;;;;;;5013362;28;20068;-62
2021/12/21 08:28:38;;;;;;;17.77;7.18;;;-1.50;99.90;;;;;;5013170;28;20154;-62
2021/12/21 08:31:04;;;;;;;15.52;8.00;;;-1.40;99.90;;;;;;5012944;28;20025;-63
2021/12/21 08:33:30;;;;;;;14.90;6.95;;;-1.40;99.90;;;;;;5012983;28;20038;-63
2021/12/21 08:35:56;;;;;;;15.83;7.10;;;-1.40;99.90;;;;;;5013194;28;20085;-63
2021/12/21 08:38:21;;;;;;;15.60;7.87;;;-1.30;99.90;;;;;;5017392;28;20034;-63
2021/12/21 08:40:49;;;;;;;15.75;8.30;;;-1.30;99.90;;;;;;5013757;28;20036;-62
2021/12/21 08:43:25;;;;;;;17.27;7.60;;;-1.30;99.90;;;;;;5012895;28;20026;-62
2021/12/21 08:45:52;;;;;;;19.50;9.45;;;-1.20;99.90;;;;;;5013101;28;20022;-60
2021/12/21 08:48:19;;;;;;;15.35;7.93;;;-1.20;99.90;;;;;;5012768;28;20022;-62
2021/12/21 08:50:46;;;;;;;15.43;6.72;;;-1.10;99.90;;;;;;5011393;28;20036;-61
2021/12/21 08:53:13;;;;;;;14.60;7.53;;;-1.10;99.90;;;;;;5012727;28;20497;-61
2021/12/21 08:55:41;;;;;;;17.75;7.63;;;-1.00;99.90;;;;;;5011398;28;20441;-62
2021/12/21 08:58:07;;;;;;;18.15;6.85;;;-1.00;99.90;;;;;;5012976;28;20049;-61
2021/12/21 09:00:33;;;;;;;15.82;7.65;;;-0.90;99.90;;;;;;5012683;28;20026;-62
2021/12/21 09:02:59;;;;;;;12.77;7.07;;;-0.90;99.90;;;;;;5013386;28;20033;-63
2021/12/21 09:05:28;;;;;;;18.23;8.93;;;-0.90;99.90;;;;;;5016297;28;20265;-63
2021/12/21 09:07:54;;;;;;;17.15;6.85;;;-0.90;99.90;;;;;;5017064;28;20086;-62
2021/12/21 09:10:22;;;;;;;23.42;7.45;;;-0.80;99.90;;;;;;5016484;28;20100;-62
2021/12/21 09:12:48;;;;;;;16.92;7.13;;;-0.80;99.90;;;;;;5013027;28;20425;-62
2021/12/21 09:15:16;;;;;;;16.37;7.17;;;-0.70;99.90;;;;;;5013149;28;20026;-62
2021/12/21 09:17:44;;;;;;;22.70;9.68;;;-0.70;99.90;;;;;;5015625;28;20097;-62
2021/12/21 09:20:12;;;;;;;13.00;6.57;;;-0.70;99.90;;;;;;5016908;28;20058;-62
2021/12/21 09:22:38;;;;;;;17.30;6.75;;;-0.60;99.90;;;;;;5017215;28;20029;-60
2021/12/21 09:25:04;;;;;;;12.27;6.63;;;-0.60;99.90;;;;;;5016488;28;20410;-61
2021/12/21 09:27:30;;;;;;;14.52;7.43;;;-0.50;99.90;;;;;;5016586;28;20425;-61
2021/12/21 09:29:55;;;;;;;19.33;7.47;;;-0.50;99.90;;;;;;5016912;28;20045;-61
2021/12/21 09:32:21;;;;;;;14.63;6.23;;;-0.40;99.90;;;;;;5016804;28;20034;-62
2021/12/21 09:34:47;;;;;;;23.70;6.97;;;-0.40;99.90;;;;;;5017155;28;20104;-62
2021/12/21 09:37:16;;;;;;;16.52;6.72;;;-0.30;99.90;;;;;;5016845;28;20109;-62
2021/12/21 09:39:48;;;;;;;14.27;6.53;;;-0.30;99.90;;;;;;5016511;28;20026;-62
2021/12/21 09:42:17;;;;;;;19.10;7.05;;;-0.20;99.90;;;;;;5016362;28;20022;-62
2021/12/21 09:44:43;;;;;;;20.08;7.30;;;-0.20;99.90;;;;;;5045352;23;20107;-62
2021/12/21 09:47:11;;;;;;;16.20;7.20;;;-0.10;99.90;;;;;;5036487;28;20032;-62
2021/12/21 09:49:38;;;;;;;14.98;6.35;;;0.00;99.90;;;;;;5035895;28;20040;-63
2021/12/21 09:52:09;;;;;;;13.05;6.28;;;0.00;99.90;;;;;;5035043;28;20056;-62
2021/12/21 09:54:37;;;;;;;11.45;6.50;;;0.10;99.90;;;;;;5036688;28;20116;-62
2021/12/21 09:57:04;;;;;;;17.83;6.55;;;0.20;99.90;;;;;;5036648;28;20087;-64
2021/12/21 09:59:30;;;;;;;11.48;5.93;;;0.40;99.90;;;;;;5018755;28;20025;-62
2021/12/21 10:01:57;;;;;;;15.47;5.80;;;0.50;99.90;;;;;;5036068;28;20359;-62
2021/12/21 10:04:24;;;;;;;9.98;5.65;;;0.60;99.90;;;;;;5037743;28;20048;-59
2021/12/21 10:06:54;;;;;;;14.55;6.82;;;0.70;99.90;;;;;;5035901;28;20025;-61
2021/12/21 10:09:23;;;;;;;13.52;6.13;;;0.80;99.90;;;;;;5035641;28;20430;-60
2021/12/21 10:11:50;;;;;;;13.07;6.38;;;1.00;99.90;;;;;;5035596;28;20131;-63
2021/12/21 10:14:17;;;;;;;10.55;5.80;;;1.10;99.90;;;;;;5017509;28;20500;-62
2021/12/21 10:16:46;;;;;;;13.25;6.07;;;1.30;99.90;;;;;;5035247;28;20037;-61
2021/12/21 10:19:22;;;;;;;11.88;5.10;;;1.40;99.90;;;;;;5035216;28;20036;-60
2021/12/21 10:21:48;;;;;;;13.40;5.65;;;1.50;99.90;;;;;;5035261;28;20037;-61
2021/12/21 10:24:27;;;;;;;10.05;4.90;;;1.60;99.90;;;;;;5035309;28;20023;-62
2021/12/21 10:27:07;;;;;;;12.77;4.97;;;1.60;99.90;;;;;;5035066;28;20036;-62
2021/12/21 10:29:48;;;;;;;10.18;5.03;;;1.60;99.90;;;;;;5036356;28;20055;-62
2021/12/21 10:32:25;;;;;;;8.90;4.90;;;1.80;99.90;;;;;;5017267;28;20040;-63
2021/12/21 10:34:54;;;;;;;12.10;5.43;;;1.80;99.90;;;;;;5035256;28;20029;-62
2021/12/21 10:37:23;;;;;;;9.45;4.93;;;1.80;99.90;;;;;;5035147;28;20021;-61
2021/12/21 10:39:49;;;;;;;12.30;4.97;;;1.80;99.90;;;;;;5042715;28;20397;-62
2021/12/21 10:42:15;;;;;;;10.25;4.72;;;1.80;99.90;;;;;;5042221;28;20040;-61
2021/12/21 10:44:45;;;;;;;8.32;5.25;;;1.90;99.90;;;;;;5036301;28;20033;-61
2021/12/21 10:47:12;;;;;;;10.55;5.28;;;1.90;99.90;;;;;;5017255;28;20022;-61
2021/12/21 10:49:40;;;;;;;15.57;4.95;;;1.90;99.90;;;;;;5035218;28;20033;-61
2021/12/21 10:52:09;;;;;;;9.82;4.60;;;2.00;99.90;;;;;;5034732;28;20516;-61
2021/12/21 10:54:41;;;;;;;10.13;5.45;;;2.10;99.90;;;;;;5036130;28;20099;-62
2021/12/21 10:57:31;;;;;;;8.82;4.72;;;2.10;99.90;;;;;;5017086;28;20025;-62
2021/12/21 11:00:05;;;;;;;8.50;4.57;;;2.30;99.90;;;;;;5035061;28;20077;-61
2021/12/21 11:02:34;;;;;;;12.00;5.20;;;2.40;99.90;;;;;;5034669;28;20033;-62
2021/12/21 11:05:01;;;;;;;13.68;5.13;;;2.30;99.90;;;;;;5034395;28;20033;-62
2021/12/21 11:07:46;;;;;;;7.75;4.47;;;2.20;99.90;;;;;;5034693;28;20024;-62
2021/12/21 11:10:16;;;;;;;10.48;5.10;;;2.10;99.90;;;;;;5016586;28;20032;-61
2021/12/21 11:12:57;;;;;;;10.07;5.05;;;1.90;99.90;;;;;;5035310;28;20104;-62
2021/12/21 11:15:29;;;;;;;11.60;4.47;;;1.90;99.90;;;;;;5034531;28;20032;-63
2021/12/21 11:17:56;;;;;;;10.40;4.40;;;1.90;99.90;;;;;;5034611;28;20072;-64
2021/12/21 11:20:21;;;;;;;12.68;5.32;;;2.00;99.90;;;;;;5034478;28;20025;-64
2021/12/21 11:22:47;;;;;;;11.37;4.83;;;1.90;99.90;;;;;;5034533;28;20097;-62
2021/12/21 11:25:14;;;;;;;9.10;4.53;;;1.90;99.90;;;;;;5034384;28;20099;-61
2021/12/21 11:27:43;;;;;;;14.05;4.95;;;1.90;99.90;;;;;;5034590;28;20091;-63
2021/12/21 11:30:15;;;;;;;8.93;4.35;;;1.90;99.90;;;;;;5016141;28;20025;-63
2021/12/21 11:32:48;;;;;;;11.68;3.97;;;1.90;99.90;;;;;;5034431;28;20117;-62
2021/12/21 11:37:52;;;;;;;11.93;4.50;;;2.00;99.90;;;;;;5034666;28;20083;-61
2021/12/21 11:40:30;;;;;;;9.23;3.90;;;2.00;99.90;;;;;;5033919;28;20080;-61
2021/12/21 11:43:21;;;;;;;12.93;4.30;;;2.00;99.90;;;;;;5034383;28;20025;-60
2021/12/21 11:45:49;;;;;;;10.55;4.45;;;2.00;99.90;;;;;;5017264;28;20038;-60
2021/12/21 11:48:17;;;;;;;9.60;4.15;;;2.00;99.90;;;;;;5035273;28;20025;-64
2021/12/21 11:50:46;;;;;;;7.47;4.20;;;2.00;99.90;;;;;;5033815;28;20029;-60
2021/12/21 11:53:14;;;;;;;9.88;4.88;;;2.10;99.90;;;;;;5034305;28;20033;-59
2021/12/21 11:55:43;;;;;;;10.13;3.97;;;2.10;99.90;;;;;;5033951;28;20044;-62
2021/12/21 11:58:48;;;;;;;15.20;5.93;;;2.10;99.90;;;;;;5015788;28;20025;-62
2021/12/21 12:01:22;;;;;;;8.68;4.88;;;2.30;99.90;;;;;;5033987;28;20021;-61
2021/12/21 12:03:59;;;;;;;7.72;4.00;;;2.30;99.90;;;;;;5016668;28;20389;-62
2021/12/21 12:06:26;;;;;;;11.65;4.85;;;2.30;99.90;;;;;;5034206;28;20033;-62
2021/12/21 12:09:01;;;;;;;10.65;4.75;;;2.40;99.90;;;;;;5015613;28;20036;-62
2021/12/21 12:11:39;;;;;;;8.25;3.70;;;2.40;99.90;;;;;;5033542;28;20026;-62
2021/12/21 12:14:07;;;;;;;10.75;4.60;;;2.40;99.90;;;;;;5033234;28;20060;-63
2021/12/21 12:16:39;;;;;;;17.33;4.45;;;2.40;99.90;;;;;;5033197;28;20041;-62
2021/12/21 12:19:16;;;;;;;7.25;3.63;;;2.40;99.90;;;;;;5033258;28;20032;-62
2021/12/21 12:21:55;;;;;;;7.82;4.68;;;2.50;99.90;;;;;;5033101;28;20021;-61
2021/12/21 12:24:23;;;;;;;6.72;3.88;;;2.50;99.90;;;;;;5015055;28;20036;-63
2021/12/21 12:27:20;;;;;;;6.88;3.88;;;2.60;99.90;;;;;;5032989;28;20022;-62
2021/12/21 12:30:00;;;;;;;10.57;4.38;;;2.60;99.90;;;;;;5017538;28;20433;-61
2021/12/21 12:32:32;;;;;;;11.32;4.30;;;2.60;99.90;;;;;;5032991;28;20067;-63
2021/12/21 12:35:02;;;;;;;9.48;4.47;;;2.60;99.90;;;;;;5032416;28;20033;-61
2021/12/21 12:37:28;;;;;;;10.15;4.70;;;2.70;99.90;;;;;;5033034;28;20033;-62
2021/12/21 12:40:00;;;;;;;7.97;4.00;;;2.70;99.90;;;;;;5033058;28;20021;-60
2021/12/21 12:42:29;;;;;;;7.43;3.78;;;2.70;99.90;;;;;;5033471;28;20644;-61
2021/12/21 12:45:12;;;;;;;7.82;3.83;;;2.80;99.90;;;;;;5032889;28;20037;-61
2021/12/21 12:47:46;;;;;;;10.02;4.60;;;2.90;99.90;;;;;;5033360;28;20072;-61
2021/12/21 12:50:25;;;;;;;7.22;3.90;;;3.00;99.90;;;;;;5033216;28;20029;-59
2021/12/21 12:53:01;;;;;;;10.75;4.50;;;3.10;99.90;;;;;;5037308;28;20025;-61
2021/12/21 12:55:42;;;;;;;7.60;3.58;;;3.20;99.90;;;;;;5036729;28;20026;-57
2021/12/21 12:58:20;;;;;;;9.75;4.22;;;3.20;99.90;;;;;;5036180;28;20060;-58
2021/12/21 13:00:56;;;;;;;9.40;3.42;;;3.30;99.90;;;;;;5036532;28;20022;-60
2021/12/21 13:03:35;;;;;;;8.55;3.90;;;3.20;99.90;;;;;;5018759;28;20028;-57
2021/12/21 13:06:07;;;;;;;6.80;3.70;;;3.30;99.90;;;;;;5018220;28;20040;-61
2021/12/21 13:08:33;;;;;;;10.68;4.15;;;3.30;99.90;;;;;;5036486;28;20377;-59
2021/12/21 13:11:00;;;;;;;8.43;4.03;;;3.20;99.90;;;;;;5036784;28;20028;-60
2021/12/21 13:13:37;;;;;;;6.95;3.65;;;3.20;99.90;;;;;;5036365;28;20075;-60
2021/12/21 13:16:12;;;;;;;7.28;3.35;;;3.10;99.90;;;;;;5019174;28;20212;-60
2021/12/21 13:18:46;;;;;;;8.25;3.22;;;3.10;99.90;;;;;;5035871;28;20031;-61
2021/12/21 13:21:25;;;;;;;11.25;3.35;;;3.00;99.90;;;;;;5018418;28;20029;-61
2021/12/21 13:23:58;;;;;;;6.63;3.95;;;3.00;99.90;;;;;;5036111;28;20021;-60
2021/12/21 13:26:37;;;;;;;7.45;3.70;;;3.00;99.90;;;;;;5036544;28;20017;-59
2021/12/21 13:29:05;;;;;;;8.25;3.53;;;3.00;99.90;;;;;;5036289;28;20029;-61
2021/12/21 13:31:31;;;;;;;9.82;3.83;;;3.00;99.90;;;;;;5036410;28;20022;-60
2021/12/21 13:33:59;;;;;;;8.30;3.70;;;3.00;99.90;;;;;;5035968;28;20103;-60
2021/12/21 13:36:38;;;;;;;8.98;3.60;;;3.00;99.90;;;;;;5035941;28;20098;-60
2021/12/21 13:39:20;;;;;;;8.95;3.83;;;3.00;99.90;;;;;;5035987;28;20073;-60
2021/12/21 13:41:56;;;;;;;7.75;3.30;;;3.00;99.90;;;;;;5035955;28;20139;-60
2021/12/21 13:44:32;;;;;;;11.93;3.35;;;3.00;99.90;;;;;;5017882;28;20053;-60
2021/12/21 13:47:02;;;;;;;5.57;3.13;;;3.00;99.90;;;;;;5035824;28;20036;-58
2021/12/21 13:49:28;;;;;;;10.10;4.00;;;3.00;99.90;;;;;;5018307;28;20033;-59
2021/12/21 13:51:59;;;;;;;7.50;3.60;;;3.00;99.90;;;;;;5036514;28;20029;-61
2021/12/21 13:54:27;;;;;;;11.30;3.65;;;3.00;99.90;;;;;;5037870;28;20260;-61
2021/12/21 13:56:54;;;;;;;6.57;3.28;;;3.00;99.90;;;;;;5036877;28;20021;-61
2021/12/21 13:59:21;;;;;;;10.57;3.75;;;3.00;99.90;;;;;;5035874;28;20057;-60